Time;durP1;ratioP1;P1;durP2;ratioP2;P2;SDS_P1;SDS_P2;PMS_P1;PMS_P2;Temp;Humidity;BMP_temperature;BMP_pressure;BME280_temperature;BME280_humidity;BME280_pressure;Samples;Min_cycle;Max_cycle;Signal;HPM_P1;HPM_P2
2022/12/12 00:02:20;;;;;;;26.35;13.60;;;;;;;;;;5050316;28;20086;-69
2022/12/12 00:05:06;;;;;;;32.83;16.85;;;;;;;;;;5051196;28;20036;-69
2022/12/12 00:07:51;;;;;;;27.80;14.82;;;;;;;;;;5063728;28;20025;-70
2022/12/12 00:10:36;;;;;;;29.10;14.48;;;;;;;;;;5049474;28;20702;-70
2022/12/12 00:13:22;;;;;;;31.23;15.95;;;;;;;;;;5049218;28;20089;-72
2022/12/12 00:16:07;;;;;;;27.25;14.48;;;;;;;;;;5072113;28;20040;-69
2022/12/12 00:18:53;;;;;;;30.30;15.07;;;;;;;;;;5064131;28;20361;-69
2022/12/12 00:21:38;;;;;;;28.80;14.73;;;;;;;;;;5064026;28;20028;-74
2022/12/12 00:24:23;;;;;;;29.77;14.93;;;;;;;;;;5051524;28;20427;-75
2022/12/12 00:27:08;;;;;;;25.52;15.15;;;;;;;;;;5036398;28;20036;-76
2022/12/12 00:29:54;;;;;;;27.88;14.02;;;;;;;;;;5062100;28;20025;-75
2022/12/12 00:32:39;;;;;;;31.10;15.40;;;;;;;;;;5065325;28;20024;-74
2022/12/12 00:35:25;;;;;;;29.08;14.38;;;;;;;;;;5044602;28;20020;-76
2022/12/12 00:38:10;;;;;;;30.55;15.13;;;;;;;;;;5046439;28;20529;-76
2022/12/12 00:40:56;;;;;;;26.42;14.50;;;;;;;;;;5051079;28;20035;-75
2022/12/12 00:43:41;;;;;;;25.85;14.30;;;;;;;;;;5051463;28;20505;-75
2022/12/12 00:46:27;;;;;;;26.65;13.07;;;;;;;;;;5047571;28;20221;-74
2022/12/12 00:49:13;;;;;;;23.90;13.43;;;;;;;;;;5052125;28;20032;-75
2022/12/12 00:51:58;;;;;;;28.70;13.60;;;;;;;;;;5044091;28;20043;-75
2022/12/12 00:54:44;;;;;;;28.38;15.13;;;;;;;;;;5036611;28;20111;-74
2022/12/12 00:57:29;;;;;;;26.48;14.77;;;;;;;;;;5036930;28;20036;-71
2022/12/12 01:00:14;;;;;;;27.67;14.63;;;;;;;;;;5045467;28;20049;-70
2022/12/12 01:02:59;;;;;;;24.85;13.13;;;;;;;;;;5048672;28;20025;-69
2022/12/12 01:05:45;;;;;;;27.10;14.43;;;;;;;;;;5032128;28;20032;-69
2022/12/12 01:08:30;;;;;;;28.88;13.70;;;;;;;;;;5064768;28;20097;-70
2022/12/12 01:11:16;;;;;;;26.67;14.63;;;;;;;;;;5048506;28;20036;-72
2022/12/12 01:14:01;;;;;;;24.90;13.85;;;;;;;;;;5046456;28;20149;-79
2022/12/12 01:16:47;;;;;;;23.75;14.05;;;;;;;;;;5048343;28;20036;-71
2022/12/12 01:19:32;;;;;;;27.38;13.93;;;;;;;;;;5070780;28;20048;-71
2022/12/12 01:22:17;;;;;;;27.15;14.48;;;;;;;;;;5044761;28;20036;-70
2022/12/12 01:25:02;;;;;;;25.42;13.02;;;;;;;;;;5047748;28;20047;-70
2022/12/12 01:27:48;;;;;;;28.77;13.35;;;;;;;;;;5045958;28;20497;-70
2022/12/12 01:30:33;;;;;;;25.45;13.60;;;;;;;;;;5044942;28;20037;-69
2022/12/12 01:33:19;;;;;;;29.35;14.45;;;;;;;;;;5047259;28;20480;-70
2022/12/12 01:36:05;;;;;;;28.02;14.95;;;;;;;;;;5054438;28;20047;-70
2022/12/12 01:38:51;;;;;;;24.48;12.05;;;;;;;;;;5044827;28;20098;-70
2022/12/12 01:41:36;;;;;;;25.63;13.88;;;;;;;;;;5048334;28;20032;-69
2022/12/12 01:44:40;;;;;;;30.88;14.77;;;;;;;;;;5050841;28;20043;-69
2022/12/12 01:47:25;;;;;;;23.88;13.63;;;;;;;;;;5028908;28;20448;-70
2022/12/12 01:50:11;;;;;;;26.15;14.13;;;;;;;;;;5041904;28;20054;-75
2022/12/12 01:52:56;;;;;;;26.08;13.77;;;;;;;;;;5050077;28;20043;-73
2022/12/12 01:55:41;;;;;;;24.98;13.15;;;;;;;;;;5044897;28;20060;-74
2022/12/12 01:58:28;;;;;;;29.65;13.65;;;;;;;;;;5046846;28;20020;-75
2022/12/12 02:01:14;;;;;;;28.10;14.85;;;;;;;;;;5034806;28;20052;-74
2022/12/12 02:04:00;;;;;;;25.85;13.68;;;;;;;;;;5060979;28;20025;-74
2022/12/12 02:06:46;;;;;;;23.02;11.85;;;;;;;;;;5049365;28;20028;-79
2022/12/12 02:09:32;;;;;;;24.50;14.18;;;;;;;;;;5045262;28;20024;-90
2022/12/12 02:12:17;;;;;;;27.55;13.43;;;;;;;;;;5046467;28;20032;-71
2022/12/12 02:15:02;;;;;;;26.08;12.80;;;;;;;;;;5047672;28;20025;-70
2022/12/12 02:18:07;;;;;;;21.52;11.10;;;;;;;;;;5046902;28;20434;-70
2022/12/12 02:21:14;;;;;;;20.23;12.57;;;;;;;;;;5049753;28;20036;-69
2022/12/12 02:24:09;;;;;;;22.20;11.65;;;;;;;;;;5066249;28;20020;-68
2022/12/12 02:26:54;;;;;;;23.15;12.50;;;;;;;;;;5053541;28;20037;-74
2022/12/12 02:29:39;;;;;;;24.35;12.15;;;;;;;;;;5059258;28;20037;-92
2022/12/12 02:32:44;;;;;;;24.08;13.98;;;;;;;;;;5050787;28;20024;-86
2022/12/12 02:35:37;;;;;;;25.15;12.43;;;;;;;;;;5046457;28;20479;-90
2022/12/12 02:38:42;;;;;;;25.65;13.82;;;;;;;;;;5050690;28;20047;-86
2022/12/12 02:41:29;;;;;;;27.52;13.60;;;;;;;;;;5050351;28;20173;-86
2022/12/12 02:44:34;;;;;;;26.23;14.23;;;;;;;;;;5043430;28;20368;-74
2022/12/12 02:47:25;;;;;;;20.67;11.80;;;;;;;;;;5050615;28;20102;-70
2022/12/12 02:50:12;;;;;;;23.92;12.82;;;;;;;;;;5051376;28;20039;-70
2022/12/12 02:52:58;;;;;;;26.83;11.95;;;;;;;;;;5067535;28;20061;-70
2022/12/12 02:55:44;;;;;;;25.13;12.45;;;;;;;;;;5041540;28;20283;-70
2022/12/12 02:58:29;;;;;;;23.38;12.27;;;;;;;;;;5048804;28;20072;-70
2022/12/12 03:01:30;;;;;;;22.15;12.65;;;;;;;;;;5047266;28;20053;-69
2022/12/12 03:07:48;;;;;;;28.27;12.82;;;;;;;;;;5045538;28;20031;-76
2022/12/12 03:10:43;;;;;;;24.42;11.52;;;;;;;;;;5051511;28;20143;-75
2022/12/12 03:13:51;;;;;;;26.02;12.57;;;;;;;;;;5044266;28;20171;-75
2022/12/12 03:17:03;;;;;;;23.83;12.13;;;;;;;;;;5036351;28;20024;-75
2022/12/12 03:19:51;;;;;;;24.58;11.98;;;;;;;;;;5050751;28;20047;-75
2022/12/12 03:22:47;;;;;;;25.33;12.10;;;;;;;;;;5051875;28;20029;-77
2022/12/12 03:25:46;;;;;;;26.33;12.10;;;;;;;;;;5050471;28;20032;-75
2022/12/12 03:28:33;;;;;;;25.87;12.43;;;;;;;;;;5058209;28;20017;-72
2022/12/12 03:31:22;;;;;;;23.92;13.63;;;;;;;;;;5052298;28;20123;-75
2022/12/12 03:34:15;;;;;;;21.75;13.07;;;;;;;;;;5067095;28;20024;-74
2022/12/12 03:37:10;;;;;;;29.08;13.80;;;;;;;;;;5036969;28;20155;-76
2022/12/12 03:39:58;;;;;;;26.30;12.45;;;;;;;;;;5048175;28;20036;-82
2022/12/12 03:42:46;;;;;;;23.58;11.25;;;;;;;;;;5063484;28;20031;-71
2022/12/12 03:45:43;;;;;;;24.40;12.25;;;;;;;;;;5044240;28;20442;-70
2022/12/12 03:48:29;;;;;;;24.45;13.18;;;;;;;;;;5048954;28;20078;-70
2022/12/12 03:51:26;;;;;;;23.23;11.85;;;;;;;;;;5063908;28;20059;-69
2022/12/12 03:54:16;;;;;;;28.35;14.07;;;;;;;;;;5048046;28;20483;-71
2022/12/12 03:57:08;;;;;;;25.08;12.85;;;;;;;;;;5046260;28;20086;-71
2022/12/12 03:59:57;;;;;;;24.77;12.30;;;;;;;;;;5058129;28;20055;-83
2022/12/12 04:02:55;;;;;;;27.63;13.60;;;;;;;;;;5051735;28;20036;-69
2022/12/12 04:06:30;;;;;;;26.67;14.23;;;;;;;;;;5047186;28;20043;-71
2022/12/12 04:15:22;;;;;;;26.35;12.32;;;;;;;;;;5048564;28;20111;-79
2022/12/12 04:18:18;;;;;;;25.83;13.40;;;;;;;;;;5050204;28;20039;-76
2022/12/12 04:24:07;;;;;;;28.73;14.13;;;;;;;;;;5051972;28;20036;-73
2022/12/12 04:27:04;;;;;;;24.60;13.07;;;;;;;;;;5050701;28;20013;-74
2022/12/12 04:30:09;;;;;;;27.67;13.90;;;;;;;;;;5049628;28;20071;-74
2022/12/12 04:33:03;;;;;;;23.13;13.20;;;;;;;;;;5039776;28;20024;-75
2022/12/12 04:35:49;;;;;;;24.38;12.95;;;;;;;;;;5025884;28;20036;-83
2022/12/12 04:38:35;;;;;;;25.92;13.63;;;;;;;;;;5041016;28;20024;-77
2022/12/12 04:41:21;;;;;;;28.17;13.77;;;;;;;;;;5037599;28;20077;-77
2022/12/12 04:44:08;;;;;;;25.15;12.25;;;;;;;;;;5037766;28;20064;-78
2022/12/12 04:46:54;;;;;;;23.20;11.90;;;;;;;;;;5062732;28;20411;-76
2022/12/12 04:49:40;;;;;;;26.98;14.60;;;;;;;;;;5049952;28;20024;-77
2022/12/12 04:52:26;;;;;;;27.20;14.13;;;;;;;;;;5047972;28;20029;-76
2022/12/12 04:55:20;;;;;;;25.58;13.40;;;;;;;;;;5031532;28;20089;-70
2022/12/12 04:58:06;;;;;;;23.30;11.68;;;;;;;;;;5040696;28;20041;-70
2022/12/12 05:00:58;;;;;;;25.60;12.98;;;;;;;;;;5060931;28;20133;-71
2022/12/12 05:03:52;;;;;;;25.65;13.38;;;;;;;;;;5056671;28;20330;-70
2022/12/12 05:06:46;;;;;;;26.85;12.27;;;;;;;;;;5058965;28;20020;-70
2022/12/12 05:09:32;;;;;;;26.75;13.07;;;;;;;;;;5060244;28;20388;-69
2022/12/12 05:12:17;;;;;;;25.58;13.05;;;;;;;;;;5049810;28;20028;-71
2022/12/12 05:15:03;;;;;;;21.50;10.90;;;;;;;;;;5046682;28;20077;-72
2022/12/12 05:18:04;;;;;;;23.17;12.82;;;;;;;;;;5047130;28;20020;-70
2022/12/12 05:20:49;;;;;;;26.70;13.88;;;;;;;;;;5047612;28;20501;-71
2022/12/12 05:23:34;;;;;;;26.13;14.27;;;;;;;;;;5026148;28;20040;-69
2022/12/12 05:26:27;;;;;;;30.52;13.93;;;;;;;;;;5052978;28;20042;-69
2022/12/12 05:29:15;;;;;;;26.08;14.05;;;;;;;;;;5065602;28;20035;-79
2022/12/12 05:32:00;;;;;;;29.77;14.10;;;;;;;;;;5063426;28;20016;-77
2022/12/12 05:34:46;;;;;;;26.73;14.10;;;;;;;;;;5053021;28;20108;-78
2022/12/12 05:37:31;;;;;;;29.70;14.25;;;;;;;;;;5041063;28;20357;-78
2022/12/12 05:40:16;;;;;;;23.15;13.23;;;;;;;;;;5050174;28;20443;-78
2022/12/12 05:43:01;;;;;;;29.83;14.20;;;;;;;;;;5050577;28;20028;-78
2022/12/12 05:45:47;;;;;;;28.27;14.18;;;;;;;;;;5050442;28;20526;-76
2022/12/12 05:48:33;;;;;;;27.05;13.68;;;;;;;;;;5046956;28;20033;-70
2022/12/12 05:51:18;;;;;;;30.73;13.68;;;;;;;;;;5051739;28;20037;-74
2022/12/12 05:54:04;;;;;;;27.35;13.90;;;;;;;;;;5043229;28;20028;-74
2022/12/12 05:56:49;;;;;;;28.70;14.27;;;;;;;;;;5052728;28;20028;-74
2022/12/12 05:59:34;;;;;;;24.20;13.15;;;;;;;;;;5064675;28;20051;-75
2022/12/12 06:02:19;;;;;;;26.85;14.52;;;;;;;;;;5031699;28;20108;-78
2022/12/12 06:05:05;;;;;;;25.23;13.38;;;;;;;;;;5049710;28;20025;-77
2022/12/12 06:07:50;;;;;;;30.27;16.02;;;;;;;;;;5060645;28;20017;-74
2022/12/12 06:10:35;;;;;;;28.70;15.40;;;;;;;;;;5036687;28;20039;-68
2022/12/12 06:13:21;;;;;;;25.95;14.45;;;;;;;;;;5045436;28;20017;-77
2022/12/12 06:16:07;;;;;;;28.25;15.45;;;;;;;;;;5046887;28;20044;-83
2022/12/12 06:18:53;;;;;;;27.55;14.98;;;;;;;;;;5065428;28;20024;-77
2022/12/12 06:21:38;;;;;;;30.35;15.68;;;;;;;;;;5050602;28;20040;-87
2022/12/12 06:24:24;;;;;;;27.27;15.00;;;;;;;;;;5051923;28;20020;-76
2022/12/12 06:27:09;;;;;;;31.15;16.02;;;;;;;;;;5026492;28;20056;-78
2022/12/12 06:29:57;;;;;;;28.83;14.43;;;;;;;;;;5039167;28;20021;-77
2022/12/12 06:32:42;;;;;;;29.60;14.15;;;;;;;;;;5055271;28;20036;-77
2022/12/12 06:35:27;;;;;;;26.67;14.20;;;;;;;;;;5056498;28;20025;-79
2022/12/12 06:38:13;;;;;;;28.95;14.15;;;;;;;;;;5033728;28;20028;-78
2022/12/12 06:40:58;;;;;;;26.52;14.50;;;;;;;;;;5051170;28;20552;-81
2022/12/12 06:43:43;;;;;;;35.10;16.00;;;;;;;;;;5046990;28;20017;-79
2022/12/12 06:46:29;;;;;;;26.55;14.20;;;;;;;;;;5053833;28;20502;-78
2022/12/12 06:49:14;;;;;;;26.95;14.50;;;;;;;;;;5052216;28;20028;-78
2022/12/12 06:51:59;;;;;;;27.27;14.30;;;;;;;;;;5050619;28;20072;-76
2022/12/12 06:54:45;;;;;;;26.80;14.48;;;;;;;;;;5037324;28;20033;-85
2022/12/12 06:57:30;;;;;;;24.88;13.48;;;;;;;;;;5063998;28;20060;-78
2022/12/12 07:00:15;;;;;;;29.55;15.35;;;;;;;;;;5054856;28;20048;-76
2022/12/12 07:03:01;;;;;;;27.45;14.35;;;;;;;;;;5056130;28;20025;-82
2022/12/12 07:05:46;;;;;;;29.55;14.82;;;;;;;;;;5035725;28;20493;-72
2022/12/12 07:08:32;;;;;;;26.25;14.30;;;;;;;;;;5036095;28;20021;-71
2022/12/12 07:11:22;;;;;;;26.10;14.05;;;;;;;;;;5067378;28;20020;-72
2022/12/12 07:14:08;;;;;;;32.10;16.65;;;;;;;;;;5037852;28;20024;-73
2022/12/12 07:16:54;;;;;;;28.13;14.38;;;;;;;;;;5045545;28;20111;-70
2022/12/12 07:19:39;;;;;;;28.88;14.50;;;;;;;;;;5052457;28;20033;-75
2022/12/12 07:22:24;;;;;;;32.28;16.95;;;;;;;;;;5048908;28;20044;-85
2022/12/12 07:25:09;;;;;;;26.45;14.70;;;;;;;;;;5050851;28;20033;-82
2022/12/12 07:27:55;;;;;;;30.48;16.83;;;;;;;;;;5052323;28;20460;-88
2022/12/12 07:30:41;;;;;;;29.23;15.60;;;;;;;;;;5056214;28;20040;-79
2022/12/12 07:33:27;;;;;;;29.15;15.60;;;;;;;;;;5055134;28;20475;-76
2022/12/12 07:36:13;;;;;;;31.02;15.98;;;;;;;;;;5041773;28;20097;-81
2022/12/12 07:38:58;;;;;;;31.17;16.52;;;;;;;;;;5053788;28;20028;-83
2022/12/12 07:41:43;;;;;;;31.30;17.02;;;;;;;;;;5054690;28;20032;-83
2022/12/12 07:44:29;;;;;;;30.92;14.75;;;;;;;;;;5052734;28;20460;-84
2022/12/12 07:47:14;;;;;;;40.13;17.10;;;;;;;;;;5058534;28;20365;-83
2022/12/12 07:49:59;;;;;;;29.23;15.70;;;;;;;;;;5053444;28;20016;-81
2022/12/12 07:52:45;;;;;;;33.67;18.90;;;;;;;;;;5046458;28;20467;-79
2022/12/12 07:55:30;;;;;;;31.00;16.92;;;;;;;;;;5048793;28;20036;-82
2022/12/12 07:58:15;;;;;;;30.50;17.23;;;;;;;;;;5057012;28;20032;-77
2022/12/12 08:01:06;;;;;;;30.55;17.55;;;;;;;;;;5060787;28;20063;-74
2022/12/12 08:03:52;;;;;;;32.58;16.70;;;;;;;;;;5067859;28;20081;-76
2022/12/12 08:06:37;;;;;;;35.08;19.42;;;;;;;;;;5054115;28;20254;-75
2022/12/12 08:09:23;;;;;;;34.17;19.48;;;;;;;;;;5040438;28;20105;-76
2022/12/12 08:12:09;;;;;;;32.20;17.38;;;;;;;;;;5038337;28;20040;-74
2022/12/12 08:14:54;;;;;;;28.85;16.38;;;;;;;;;;5051744;28;20028;-84
2022/12/12 08:17:39;;;;;;;34.15;17.95;;;;;;;;;;5052519;28;20500;-73
2022/12/12 08:20:24;;;;;;;29.92;17.10;;;;;;;;;;5042605;28;20526;-77
2022/12/12 08:23:10;;;;;;;28.00;15.00;;;;;;;;;;5054819;28;20032;-74
2022/12/12 08:25:55;;;;;;;29.00;16.65;;;;;;;;;;5045700;28;20044;-74
2022/12/12 08:28:43;;;;;;;35.00;18.67;;;;;;;;;;5053736;28;20391;-75
2022/12/12 08:31:29;;;;;;;35.17;17.70;;;;;;;;;;5056021;28;20052;-74
2022/12/12 08:34:14;;;;;;;33.15;16.77;;;;;;;;;;5053724;28;20032;-76
2022/12/12 08:36:59;;;;;;;28.85;16.23;;;;;;;;;;5054360;28;20035;-81
2022/12/12 08:39:45;;;;;;;33.13;17.40;;;;;;;;;;5036822;28;20431;-79
2022/12/12 08:42:30;;;;;;;31.40;16.38;;;;;;;;;;5054424;28;20471;-81
2022/12/12 08:45:15;;;;;;;31.42;15.90;;;;;;;;;;5054681;28;20028;-80
2022/12/12 08:48:01;;;;;;;29.25;15.85;;;;;;;;;;5049296;28;20024;-75
2022/12/12 08:50:46;;;;;;;26.08;14.48;;;;;;;;;;5042167;28;20023;-80
2022/12/12 08:53:31;;;;;;;29.65;15.82;;;;;;;;;;5035898;28;20040;-79
2022/12/12 08:56:17;;;;;;;30.23;14.30;;;;;;;;;;5032545;28;20656;-79
2022/12/12 08:59:03;;;;;;;34.70;16.27;;;;;;;;;;5049061;28;20071;-80
2022/12/12 09:01:48;;;;;;;29.50;16.73;;;;;;;;;;5050666;28;20071;-79
2022/12/12 09:04:34;;;;;;;27.48;15.68;;;;;;;;;;5053797;28;20066;-80
2022/12/12 09:07:19;;;;;;;27.13;15.43;;;;;;;;;;5050734;28;20032;-79
2022/12/12 09:10:05;;;;;;;30.45;15.55;;;;;;;;;;5037854;28;20052;-78
2022/12/12 09:12:50;;;;;;;27.42;16.00;;;;;;;;;;5049422;28;20032;-72
2022/12/12 09:15:36;;;;;;;25.38;13.95;;;;;;;;;;5053058;28;20051;-74
2022/12/12 09:18:21;;;;;;;29.63;16.13;;;;;;;;;;5047271;28;20078;-76
2022/12/12 09:21:07;;;;;;;32.45;14.40;;;;;;;;;;5036306;28;20041;-76
2022/12/12 09:23:52;;;;;;;23.52;14.20;;;;;;;;;;5047147;28;20546;-72
2022/12/12 09:26:37;;;;;;;31.23;16.38;;;;;;;;;;5039556;28;20480;-74
2022/12/12 09:29:22;;;;;;;28.70;16.83;;;;;;;;;;5059672;28;20040;-75
2022/12/12 09:32:08;;;;;;;30.85;16.60;;;;;;;;;;5032607;28;20063;-75
2022/12/12 09:34:53;;;;;;;28.75;16.38;;;;;;;;;;5067811;28;20025;-72
2022/12/12 09:37:38;;;;;;;30.08;16.08;;;;;;;;;;5071891;28;20111;-72
2022/12/12 09:40:36;;;;;;;28.20;16.10;;;;;;;;;;5047453;28;20120;-73
2022/12/12 09:43:23;;;;;;;30.10;15.30;;;;;;;;;;5057169;28;20012;-75
2022/12/12 09:46:28;;;;;;;27.52;14.82;;;;;;;;;;5035007;28;20736;-71
2022/12/12 09:49:33;;;;;;;26.90;15.27;;;;;;;;;;5061896;28;20020;-78
2022/12/12 09:52:27;;;;;;;25.23;12.52;;;;;;;;;;5064225;28;20121;-79
2022/12/12 09:55:16;;;;;;;25.90;13.90;;;;;;;;;;5035931;28;20108;-81
2022/12/12 09:58:04;;;;;;;28.98;15.30;;;;;;;;;;5058716;28;20503;-86
2022/12/12 10:01:01;;;;;;;29.25;15.30;;;;;;;;;;5044037;28;20102;-81
2022/12/12 10:04:05;;;;;;;23.70;14.27;;;;;;;;;;5054124;28;20193;-87
2022/12/12 10:07:00;;;;;;;31.85;15.80;;;;;;;;;;5037411;28;20439;-70
2022/12/12 10:09:54;;;;;;;29.95;15.70;;;;;;;;;;5047560;28;20036;-74
2022/12/12 10:12:40;;;;;;;25.33;14.10;;;;;;;;;;5053957;28;20442;-73
2022/12/12 10:15:28;;;;;;;26.70;14.10;;;;;;;;;;5054656;28;20024;-76
2022/12/12 10:18:19;;;;;;;26.75;15.18;;;;;;;;;;5066536;28;20032;-74
2022/12/12 10:21:08;;;;;;;26.30;14.50;;;;;;;;;;5041052;28;20082;-73
2022/12/12 10:24:02;;;;;;;25.38;14.68;;;;;;;;;;5055886;28;20024;-78
2022/12/12 10:26:48;;;;;;;30.52;15.20;;;;;;;;;;5053145;28;20097;-74
2022/12/12 10:29:33;;;;;;;26.23;14.68;;;;;;;;;;5025898;28;20024;-74
2022/12/12 10:32:21;;;;;;;26.35;14.75;;;;;;;;;;5048062;28;20119;-72
2022/12/12 10:35:16;;;;;;;26.95;14.52;;;;;;;;;;5055550;28;20024;-72
2022/12/12 10:38:14;;;;;;;27.00;15.45;;;;;;;;;;5047509;28;20475;-70
2022/12/12 10:41:06;;;;;;;26.80;15.95;;;;;;;;;;5047118;28;20642;-71
2022/12/12 10:43:59;;;;;;;24.17;14.05;;;;;;;;;;5076506;28;20021;-84
2022/12/12 10:46:55;;;;;;;28.80;15.07;;;;;;;;;;5053212;28;20037;-75
2022/12/12 10:49:40;;;;;;;29.25;14.25;;;;;;;;;;5039469;28;20028;-76
2022/12/12 10:52:26;;;;;;;25.48;13.70;;;;;;;;;;5055264;28;20043;-76
2022/12/12 10:55:19;;;;;;;26.00;13.63;;;;;;;;;;5039914;28;20020;-78
2022/12/12 10:58:04;;;;;;;23.60;13.68;;;;;;;;;;5076800;28;20036;-75
2022/12/12 11:00:51;;;;;;;23.30;12.88;;;;;;;;;;5043351;28;20049;-83
2022/12/12 11:03:56;;;;;;;23.38;12.70;;;;;;;;;;5054022;28;20016;-80
2022/12/12 11:06:45;;;;;;;25.17;12.10;;;;;;;;;;5055363;28;20032;-75
2022/12/12 11:09:30;;;;;;;;;;;;;;;;;;5050178;28;20035;-78
2022/12/12 11:12:16;;;;;;;19.58;12.00;;;;;;;;;;5047980;28;20373;-78
2022/12/12 11:15:04;;;;;;;23.65;12.13;;;;;;;;;;5056343;28;20031;-78
2022/12/12 11:17:49;;;;;;;22.27;11.75;;;;;;;;;;5039057;28;20184;-78
2022/12/12 11:20:42;;;;;;;21.00;11.93;;;;;;;;;;5044871;28;20044;-76
2022/12/12 11:23:28;;;;;;;21.55;11.65;;;;;;;;;;5066102;28;20020;-80
2022/12/12 11:26:15;;;;;;;19.42;10.32;;;;;;;;;;5049442;23;20060;-80
2022/12/12 11:29:01;;;;;;;19.05;10.48;;;;;;;;;;5042190;28;20013;-79
2022/12/12 11:31:47;;;;;;;22.30;11.10;;;;;;;;;;5025921;28;20060;-80
2022/12/12 11:34:35;;;;;;;22.50;11.30;;;;;;;;;;5021092;28;20260;-81
2022/12/12 11:37:22;;;;;;;22.13;11.70;;;;;;;;;;5034406;28;20142;-80
2022/12/12 11:40:18;;;;;;;17.15;9.70;;;;;;;;;;5034225;28;20117;-82
2022/12/12 11:43:17;;;;;;;18.73;9.88;;;;;;;;;;5016136;28;20378;-79
2022/12/12 11:46:07;;;;;;;19.77;10.18;;;;;;;;;;5034309;28;20063;-81
2022/12/12 11:48:52;;;;;;;17.08;10.13;;;;;;;;;;5027918;28;20029;-81
2022/12/12 11:51:37;;;;;;;20.58;10.30;;;;;;;;;;5035729;28;20495;-81
2022/12/12 11:54:28;;;;;;;19.80;9.93;;;;;;;;;;5035060;28;20029;-82
2022/12/12 11:57:14;;;;;;;20.33;10.15;;;;;;;;;;5033177;28;20491;-75
2022/12/12 12:00:03;;;;;;;17.00;9.27;;;;;;;;;;5030811;28;20028;-81
2022/12/12 12:03:01;;;;;;;21.27;9.07;;;;;;;;;;5019635;28;20466;-84
2022/12/12 12:05:58;;;;;;;19.23;10.52;;;;;;;;;;5038230;28;20029;-80
2022/12/12 12:09:03;;;;;;;16.98;8.98;;;;;;;;;;5008316;28;20057;-84
2022/12/12 12:11:48;;;;;;;16.38;9.25;;;;;;;;;;5032960;28;20025;-85
2022/12/12 12:14:46;;;;;;;17.90;9.23;;;;;;;;;;5035699;28;20036;-76
2022/12/12 12:17:56;;;;;;;16.42;8.32;;;;;;;;;;5015508;28;20029;-80
2022/12/12 12:20:44;;;;;;;19.52;8.85;;;;;;;;;;5011358;28;20030;-77
2022/12/12 12:23:48;;;;;;;19.33;8.30;;;;;;;;;;5019435;28;20033;-79
2022/12/12 12:26:36;;;;;;;18.98;9.13;;;;;;;;;;5007562;28;20610;-78
2022/12/12 12:29:27;;;;;;;13.45;7.75;;;;;;;;;;5000275;28;20041;-77
2022/12/12 12:32:13;;;;;;;14.25;7.70;;;;;;;;;;5018231;28;20256;-80
2022/12/12 12:35:06;;;;;;;16.33;8.75;;;;;;;;;;5016248;28;20029;-82
2022/12/12 12:37:57;;;;;;;18.92;9.38;;;;;;;;;;4997684;28;20059;-79
2022/12/12 12:40:42;;;;;;;16.70;8.75;;;;;;;;;;5010130;28;20041;-80
2022/12/12 12:43:28;;;;;;;13.40;6.93;;;;;;;;;;5007890;28;20060;-77
2022/12/12 12:46:32;;;;;;;15.00;7.22;;;;;;;;;;5014694;28;20029;-78
2022/12/12 12:49:21;;;;;;;13.45;7.03;;;;;;;;;;5023305;28;20037;-78
2022/12/12 12:52:29;;;;;;;14.07;6.82;;;;;;;;;;5017239;28;20026;-78
2022/12/12 12:55:17;;;;;;;15.25;7.70;;;;;;;;;;4992783;28;20072;-72
2022/12/12 12:58:04;;;;;;;10.70;5.70;;;;;;;;;;5009598;28;20037;-70
2022/12/12 13:01:05;;;;;;;12.43;4.95;;;;;;;;;;5012861;28;20045;-70
2022/12/12 13:03:55;;;;;;;9.30;4.18;;;;;;;;;;5009355;28;20081;-70
2022/12/12 13:06:49;;;;;;;14.73;5.85;;;;;;;;;;5004797;28;20049;-73
2022/12/12 13:09:39;;;;;;;13.45;5.03;;;;;;;;;;4983679;28;20037;-76
2022/12/12 13:12:34;;;;;;;11.70;5.07;;;;;;;;;;5008772;28;20052;-75
2022/12/12 13:15:38;;;;;;;8.82;4.45;;;;;;;;;;5014133;28;20118;-76
2022/12/12 13:18:24;;;;;;;9.60;4.35;;;;;;;;;;5009880;28;20473;-76
2022/12/12 13:21:20;;;;;;;7.55;4.00;;;;;;;;;;5010341;28;20127;-77
2022/12/12 13:24:24;;;;;;;7.93;4.22;;;;;;;;;;5013714;28;20025;-76
2022/12/12 13:27:16;;;;;;;9.90;4.20;;;;;;;;;;4998115;28;20050;-78
2022/12/12 13:30:03;;;;;;;15.32;7.28;;;;;;;;;;4965435;28;20033;-81
2022/12/12 13:32:48;;;;;;;21.40;10.93;;;;;;;;;;4983754;28;20802;-83
2022/12/12 13:35:41;;;;;;;25.13;13.35;;;;;;;;;;4995456;28;20034;-84
2022/12/12 13:38:27;;;;;;;21.63;13.27;;;;;;;;;;4999566;28;20405;-82
2022/12/12 13:41:13;;;;;;;26.30;14.50;;;;;;;;;;4994966;28;20042;-86
2022/12/12 13:43:58;;;;;;;33.90;15.48;;;;;;;;;;4987993;28;20022;-83
2022/12/12 13:46:44;;;;;;;27.45;14.30;;;;;;;;;;4994324;28;20057;-85
2022/12/12 13:49:31;;;;;;;22.40;14.38;;;;;;;;;;4993599;28;20038;-84
2022/12/12 13:52:21;;;;;;;25.73;15.00;;;;;;;;;;4991749;28;20049;-85
2022/12/12 13:55:09;;;;;;;27.17;15.70;;;;;;;;;;4993011;28;20381;-79
2022/12/12 13:58:07;;;;;;;26.45;15.98;;;;;;;;;;4994371;28;20033;-92
2022/12/12 14:01:12;;;;;;;27.98;15.55;;;;;;;;;;5002427;28;20481;-86
2022/12/12 14:03:57;;;;;;;26.55;15.02;;;;;;;;;;4976499;28;20844;-79
2022/12/12 14:06:42;;;;;;;33.17;13.93;;;;;;;;;;5000616;28;20061;-74
2022/12/12 14:09:33;;;;;;;25.00;14.85;;;;;;;;;;5000928;28;20276;-79
2022/12/12 14:12:18;;;;;;;26.08;15.90;;;;;;;;;;4990754;28;20030;-78
2022/12/12 14:15:05;;;;;;;24.77;14.32;;;;;;;;;;4996586;28;20087;-77
2022/12/12 14:17:57;;;;;;;32.50;15.80;;;;;;;;;;5001302;28;20110;-75
2022/12/12 14:20:42;;;;;;;23.73;13.95;;;;;;;;;;4994850;28;20044;-80
2022/12/12 14:23:32;;;;;;;25.15;13.20;;;;;;;;;;4980672;28;20037;-80
2022/12/12 14:26:23;;;;;;;27.08;14.68;;;;;;;;;;4984396;28;20307;-74
2022/12/12 14:29:15;;;;;;;28.33;13.75;;;;;;;;;;4997767;28;20030;-75
2022/12/12 14:32:09;;;;;;;25.25;14.00;;;;;;;;;;4997795;28;20021;-73
2022/12/12 14:35:09;;;;;;;33.30;14.05;;;;;;;;;;4996766;28;20578;-78
2022/12/12 14:38:12;;;;;;;25.38;13.13;;;;;;;;;;4999108;28;20066;-80
2022/12/12 14:41:03;;;;;;;25.90;14.13;;;;;;;;;;4999791;28;20245;-80
2022/12/12 14:43:54;;;;;;;26.70;14.82;;;;;;;;;;4998939;28;20030;-74
2022/12/12 14:46:41;;;;;;;29.13;13.88;;;;;;;;;;4995318;28;20500;-71
2022/12/12 14:49:26;;;;;;;28.38;15.77;;;;;;;;;;4996939;28;20034;-71
2022/12/12 14:52:22;;;;;;;27.30;14.50;;;;;;;;;;5009564;28;20091;-71
2022/12/12 14:55:13;;;;;;;31.30;16.80;;;;;;;;;;4976122;28;20795;-73
2022/12/12 14:57:58;;;;;;;28.17;14.10;;;;;;;;;;5008727;28;20035;-73
2022/12/12 15:00:45;;;;;;;24.45;14.70;;;;;;;;;;5008698;28;20041;-76
2022/12/12 15:03:51;;;;;;;24.92;14.15;;;;;;;;;;4994177;28;20029;-85
2022/12/12 15:06:43;;;;;;;27.75;16.23;;;;;;;;;;4989513;28;20109;-84
2022/12/12 15:09:30;;;;;;;29.35;14.75;;;;;;;;;;4997368;28;20126;-76
2022/12/12 15:12:18;;;;;;;26.10;16.25;;;;;;;;;;5015868;28;20101;-81
2022/12/12 15:15:04;;;;;;;27.77;15.43;;;;;;;;;;4991160;28;20026;-84
2022/12/12 15:17:49;;;;;;;27.40;13.95;;;;;;;;;;4997363;28;20029;-77
2022/12/12 15:20:55;;;;;;;24.83;13.75;;;;;;;;;;4996334;28;20030;-85
2022/12/12 15:23:41;;;;;;;28.83;14.13;;;;;;;;;;4998389;28;20033;-86
2022/12/12 15:26:28;;;;;;;29.73;14.65;;;;;;;;;;4996924;28;20046;-80
2022/12/12 15:29:19;;;;;;;27.38;14.52;;;;;;;;;;4995514;28;20034;-82
2022/12/12 15:32:06;;;;;;;27.50;14.77;;;;;;;;;;5009290;28;20036;-80
2022/12/12 15:35:00;;;;;;;26.40;14.20;;;;;;;;;;4991099;28;20026;-77
2022/12/12 15:37:56;;;;;;;24.60;14.18;;;;;;;;;;4994781;28;20033;-75
2022/12/12 15:40:43;;;;;;;24.02;12.90;;;;;;;;;;4999117;28;20108;-74
2022/12/12 15:43:29;;;;;;;26.55;13.98;;;;;;;;;;4990812;28;20141;-73
2022/12/12 15:46:14;;;;;;;24.20;13.65;;;;;;;;;;4995822;28;20034;-75
2022/12/12 15:49:00;;;;;;;26.65;14.77;;;;;;;;;;4993731;28;20080;-74
2022/12/12 15:51:45;;;;;;;27.83;14.15;;;;;;;;;;4981251;28;20030;-75
2022/12/12 15:54:30;;;;;;;25.52;14.68;;;;;;;;;;4983055;28;20109;-84
2022/12/12 15:57:20;;;;;;;20.95;11.55;;;;;;;;;;4992803;28;20030;-78
2022/12/12 16:00:07;;;;;;;27.50;12.77;;;;;;;;;;4994142;28;20065;-83
2022/12/12 16:03:02;;;;;;;26.95;14.05;;;;;;;;;;5003061;28;20041;-77
2022/12/12 16:06:02;;;;;;;23.63;13.88;;;;;;;;;;4976383;28;20029;-86
2022/12/12 16:08:52;;;;;;;29.33;15.02;;;;;;;;;;4987768;28;20190;-80
2022/12/12 16:11:44;;;;;;;26.65;13.70;;;;;;;;;;4986877;28;20473;-79
2022/12/12 16:14:36;;;;;;;27.73;14.80;;;;;;;;;;4994588;28;20083;-79
2022/12/12 16:17:22;;;;;;;26.40;14.57;;;;;;;;;;4997784;28;20041;-81
2022/12/12 16:20:13;;;;;;;29.88;15.25;;;;;;;;;;4980368;28;20482;-80
2022/12/12 16:23:09;;;;;;;22.63;12.60;;;;;;;;;;4986339;28;20481;-79
2022/12/12 16:25:54;;;;;;;21.45;13.55;;;;;;;;;;5016855;28;20508;-83
2022/12/12 16:28:40;;;;;;;28.05;13.98;;;;;;;;;;5012240;28;20014;-80
2022/12/12 16:31:25;;;;;;;25.60;12.32;;;;;;;;;;5005136;28;20053;-84
2022/12/12 16:34:10;;;;;;;23.75;14.05;;;;;;;;;;5010563;28;20090;-81
2022/12/12 16:36:55;;;;;;;26.77;14.43;;;;;;;;;;5019853;28;20030;-74
2022/12/12 16:39:41;;;;;;;28.27;13.70;;;;;;;;;;5008282;28;20033;-71